Share

Hettinger, ND

Hettinger Municipal (KHEI) Elev 2703 ft | 46.01 °N, 102.66 °W | Change Station

Current weather conditions updated 35 minutes ago

Clear
Clear
53 °F
Feels Like 53 °F
N
22
Wind Variable Wind from West
Gusts 30 mph
Sunrise 5:57 AM
Sunset 7:43 PM
Moon Waning Gibbous

Today is forecast to be nearly the same temperature as yesterday.

Pressure 29.98 in
Visibility 10.0 miles
Clouds Clear
Dew Point 26 °F
Humidity 35%
Rainfall 0.00 in
Snow Depth Not available.
UV 5 out of 16
Pollen 11.00 out of 12
Air Quality Not available.
Flu Activity Sporadic
METAR KHEI 191553Z AUTO 27019G26KT 10SM CLR 12/M03 A2997 RMK AO2 PK WND 27029/1458 SLP151 T01171033

More Conditions Fewer Conditions

Pressure 29.98 in
Visibility 10.0 miles
Clouds Clear
Dew Point 26 °F
Humidity 35%
Rainfall 0.00 in
Snow Depth Not available.
UV 5 out of 16
Pollen 11.00 out of 12
Air Quality Not available.
Flu Activity Sporadic
METAR KHEI 191553Z AUTO 27019G26KT 10SM CLR 12/M03 A2997 RMK AO2 PK WND 27029/1458 SLP151 T01171033

More Conditions Fewer Conditions

10-Day Weather Forecast

Almanac

Astronomy

Apr. 19, 2014 Rise Set
Actual Time 5:57 AM MDT 7:43 PM MDT
Civil Twilight 5:25 AM MDT 8:14 PM MDT
Nautical Twilight 4:46 AM MDT 8:53 PM MDT
Astronomical Twilight 4:04 AM MDT 9:36 PM MDT
Moon No Moon Rise 9:10 AM MDT
Length of Visible Light 14h 49m
Length of Day
13h 45m
Tomorrow will be 3m 4s longer.
Waning Gibbous, 78% of the Moon is Illuminated
Today
Waning Gibbous
Apr 22
Last Quarter
Apr 29
New
May 6
First Quarter
May 14
Full

Today's Extremes

State Highs State Lows

Community

  • A Glorious Morning
    A Glorious Morning
  • Tender Rays Of Hope
    Tender Rays Of Hope
  • Bleeding Hearts
    Bleeding Hearts
  • Sunset Silhouettes
    Sunset Silhouettes
  • FL sunset Perico Isle
    FL sunset Perico Isle

WunderPhotos

Upload Photos

1,702,783 photos uploaded!

WunderBlogs® & News

Nearby

Snow Depth

Station Depth Elevation
No new snow has been reported.

Coastal Water Temperatures

Place Temperature
No Stations Reporting

Earthquake Activity

City Distance Mag. Time & Date
No recent earthquake activity has been reported nearby.
Minimum magnitude displayed is 2.5.

Nearby Weather Stations

There are no personal weather stations in this area.

What do you think?

We're not finished. Please let us know what you like, what you don't like, and what you are still missing.